sensor_id;sensor_type;location;lat;lon;timestamp;P1;durP1;ratioP1;P2;durP2;ratioP2
9224;SDS011;4647;48.072;11.616;2023-03-01T00:01:49;23.67;;;21.17;;
9224;SDS011;4647;48.072;11.616;2023-03-01T00:04:17;26.90;;;24.07;;
9224;SDS011;4647;48.072;11.616;2023-03-01T00:06:46;26.40;;;23.03;;
9224;SDS011;4647;48.072;11.616;2023-03-01T00:09:15;24.33;;;21.83;;
9224;SDS011;4647;48.072;11.616;2023-03-01T00:11:44;25.07;;;22.47;;
9224;SDS011;4647;48.072;11.616;2023-03-01T00:14:13;24.70;;;22.13;;
9224;SDS011;4647;48.072;11.616;2023-03-01T00:16:43;24.70;;;22.13;;
9224;SDS011;4647;48.072;11.616;2023-03-01T00:19:15;25.43;;;22.83;;
9224;SDS011;4647;48.072;11.616;2023-03-01T00:21:47;23.73;;;21.43;;
9224;SDS011;4647;48.072;11.616;2023-03-01T00:24:15;25.53;;;21.60;;
9224;SDS011;4647;48.072;11.616;2023-03-01T00:26:44;24.80;;;22.10;;
9224;SDS011;4647;48.072;11.616;2023-03-01T00:29:12;23.87;;;21.23;;
9224;SDS011;4647;48.072;11.616;2023-03-01T00:31:41;25.90;;;23.13;;
9224;SDS011;4647;48.072;11.616;2023-03-01T00:34:09;25.27;;;22.33;;
9224;SDS011;4647;48.072;11.616;2023-03-01T00:36:41;25.10;;;22.30;;
9224;SDS011;4647;48.072;11.616;2023-03-01T00:39:10;25.70;;;23.00;;
9224;SDS011;4647;48.072;11.616;2023-03-01T00:41:41;26.53;;;23.70;;
9224;SDS011;4647;48.072;11.616;2023-03-01T00:44:10;26.03;;;23.23;;
9224;SDS011;4647;48.072;11.616;2023-03-01T00:46:38;25.07;;;22.40;;
9224;SDS011;4647;48.072;11.616;2023-03-01T00:49:07;25.13;;;22.57;;
9224;SDS011;4647;48.072;11.616;2023-03-01T00:51:35;24.53;;;21.97;;
9224;SDS011;4647;48.072;11.616;2023-03-01T00:54:09;24.63;;;22.03;;
9224;SDS011;4647;48.072;11.616;2023-03-01T00:56:38;24.33;;;21.87;;
9224;SDS011;4647;48.072;11.616;2023-03-01T00:59:07;26.93;;;22.90;;
9224;SDS011;4647;48.072;11.616;2023-03-01T01:01:36;27.37;;;24.63;;
9224;SDS011;4647;48.072;11.616;2023-03-01T01:04:05;27.17;;;22.43;;
9224;SDS011;4647;48.072;11.616;2023-03-01T01:06:36;24.93;;;22.23;;
9224;SDS011;4647;48.072;11.616;2023-03-01T01:09:10;24.43;;;21.93;;
9224;SDS011;4647;48.072;11.616;2023-03-01T01:11:42;24.60;;;22.03;;
9224;SDS011;4647;48.072;11.616;2023-03-01T01:14:11;25.30;;;22.63;;
9224;SDS011;4647;48.072;11.616;2023-03-01T01:16:40;25.30;;;21.77;;
9224;SDS011;4647;48.072;11.616;2023-03-01T01:19:09;24.43;;;21.97;;
9224;SDS011;4647;48.072;11.616;2023-03-01T01:21:38;25.30;;;22.67;;
9224;SDS011;4647;48.072;11.616;2023-03-01T01:24:10;25.10;;;22.63;;
9224;SDS011;4647;48.072;11.616;2023-03-01T01:26:39;25.07;;;22.37;;
9224;SDS011;4647;48.072;11.616;2023-03-01T01:29:09;25.17;;;22.67;;
9224;SDS011;4647;48.072;11.616;2023-03-01T01:31:38;24.27;;;21.77;;
9224;SDS011;4647;48.072;11.616;2023-03-01T01:34:12;24.17;;;21.10;;
9224;SDS011;4647;48.072;11.616;2023-03-01T01:36:42;25.43;;;22.60;;
9224;SDS011;4647;48.072;11.616;2023-03-01T01:39:14;25.43;;;22.70;;
9224;SDS011;4647;48.072;11.616;2023-03-01T01:41:42;24.40;;;21.63;;
9224;SDS011;4647;48.072;11.616;2023-03-01T01:44:12;26.17;;;22.60;;
9224;SDS011;4647;48.072;11.616;2023-03-01T01:46:44;24.77;;;22.27;;
9224;SDS011;4647;48.072;11.616;2023-03-01T01:49:23;26.90;;;24.10;;
9224;SDS011;4647;48.072;11.616;2023-03-01T01:51:58;26.80;;;23.03;;
9224;SDS011;4647;48.072;11.616;2023-03-01T01:54:36;24.90;;;22.27;;
9224;SDS011;4647;48.072;11.616;2023-03-01T01:57:10;25.20;;;21.70;;
9224;SDS011;4647;48.072;11.616;2023-03-01T01:59:43;26.30;;;23.57;;
9224;SDS011;4647;48.072;11.616;2023-03-01T02:02:15;25.70;;;22.90;;
9224;SDS011;4647;48.072;11.616;2023-03-01T02:04:44;25.20;;;22.63;;
9224;SDS011;4647;48.072;11.616;2023-03-01T02:07:15;25.73;;;22.83;;
9224;SDS011;4647;48.072;11.616;2023-03-01T02:09:48;24.77;;;22.37;;
9224;SDS011;4647;48.072;11.616;2023-03-01T02:12:20;24.70;;;22.00;;
9224;SDS011;4647;48.072;11.616;2023-03-01T02:14:51;26.07;;;23.50;;
9224;SDS011;4647;48.072;11.616;2023-03-01T02:17:20;25.80;;;23.20;;
9224;SDS011;4647;48.072;11.616;2023-03-01T02:19:52;26.00;;;22.67;;
9224;SDS011;4647;48.072;11.616;2023-03-01T02:22:33;24.40;;;21.90;;
9224;SDS011;4647;48.072;11.616;2023-03-01T02:25:09;26.37;;;22.47;;
9224;SDS011;4647;48.072;11.616;2023-03-01T02:27:52;25.80;;;23.23;;
9224;SDS011;4647;48.072;11.616;2023-03-01T02:30:28;25.63;;;22.80;;
9224;SDS011;4647;48.072;11.616;2023-03-01T02:32:58;27.33;;;24.53;;
9224;SDS011;4647;48.072;11.616;2023-03-01T02:35:28;24.67;;;22.17;;
9224;SDS011;4647;48.072;11.616;2023-03-01T02:37:59;25.73;;;23.03;;
9224;SDS011;4647;48.072;11.616;2023-03-01T02:40:30;25.40;;;22.70;;
9224;SDS011;4647;48.072;11.616;2023-03-01T02:43:01;24.70;;;21.77;;
9224;SDS011;4647;48.072;11.616;2023-03-01T02:45:38;24.73;;;22.03;;
9224;SDS011;4647;48.072;11.616;2023-03-01T02:48:15;24.10;;;21.60;;
9224;SDS011;4647;48.072;11.616;2023-03-01T02:50:46;25.33;;;22.63;;
9224;SDS011;4647;48.072;11.616;2023-03-01T02:53:22;26.90;;;24.10;;
9224;SDS011;4647;48.072;11.616;2023-03-01T02:55:58;26.23;;;23.43;;
9224;SDS011;4647;48.072;11.616;2023-03-01T02:58:27;26.47;;;23.70;;
9224;SDS011;4647;48.072;11.616;2023-03-01T03:00:58;26.17;;;23.43;;
9224;SDS011;4647;48.072;11.616;2023-03-01T03:03:27;26.60;;;23.73;;
9224;SDS011;4647;48.072;11.616;2023-03-01T03:05:55;24.57;;;21.77;;
9224;SDS011;4647;48.072;11.616;2023-03-01T03:08:23;27.63;;;24.87;;
9224;SDS011;4647;48.072;11.616;2023-03-01T03:10:52;27.00;;;24.30;;
9224;SDS011;4647;48.072;11.616;2023-03-01T03:13:21;25.70;;;23.03;;
9224;SDS011;4647;48.072;11.616;2023-03-01T03:15:53;25.47;;;22.83;;
9224;SDS011;4647;48.072;11.616;2023-03-01T03:18:25;25.13;;;22.50;;
9224;SDS011;4647;48.072;11.616;2023-03-01T03:20:53;24.43;;;21.93;;
9224;SDS011;4647;48.072;11.616;2023-03-01T03:23:22;25.90;;;23.27;;
9224;SDS011;4647;48.072;11.616;2023-03-01T03:25:51;24.83;;;22.23;;
9224;SDS011;4647;48.072;11.616;2023-03-01T03:28:20;28.97;;;22.87;;
9224;SDS011;4647;48.072;11.616;2023-03-01T03:30:48;27.13;;;24.23;;
9224;SDS011;4647;48.072;11.616;2023-03-01T03:33:17;25.73;;;23.00;;
9224;SDS011;4647;48.072;11.616;2023-03-01T03:35:48;25.40;;;22.90;;
9224;SDS011;4647;48.072;11.616;2023-03-01T03:38:18;32.00;;;24.50;;
9224;SDS011;4647;48.072;11.616;2023-03-01T03:40:48;27.23;;;24.40;;
9224;SDS011;4647;48.072;11.616;2023-03-01T03:43:18;25.63;;;23.00;;
9224;SDS011;4647;48.072;11.616;2023-03-01T03:45:48;25.67;;;22.97;;
9224;SDS011;4647;48.072;11.616;2023-03-01T03:48:19;25.30;;;22.90;;
9224;SDS011;4647;48.072;11.616;2023-03-01T03:50:51;24.30;;;21.73;;
9224;SDS011;4647;48.072;11.616;2023-03-01T03:53:21;26.37;;;23.67;;
9224;SDS011;4647;48.072;11.616;2023-03-01T03:55:51;26.43;;;22.77;;
9224;SDS011;4647;48.072;11.616;2023-03-01T03:58:21;25.63;;;22.97;;
9224;SDS011;4647;48.072;11.616;2023-03-01T04:00:52;27.57;;;24.57;;
9224;SDS011;4647;48.072;11.616;2023-03-01T04:03:22;25.47;;;22.97;;
9224;SDS011;4647;48.072;11.616;2023-03-01T04:05:56;27.27;;;24.43;;
9224;SDS011;4647;48.072;11.616;2023-03-01T04:08:25;27.33;;;24.40;;
9224;SDS011;4647;48.072;11.616;2023-03-01T04:10:57;26.77;;;24.17;;
9224;SDS011;4647;48.072;11.616;2023-03-01T04:13:47;27.93;;;25.13;;
9224;SDS011;4647;48.072;11.616;2023-03-01T04:16:16;28.83;;;24.50;;
9224;SDS011;4647;48.072;11.616;2023-03-01T04:18:44;27.63;;;24.63;;
9224;SDS011;4647;48.072;11.616;2023-03-01T04:21:16;26.63;;;23.97;;
9224;SDS011;4647;48.072;11.616;2023-03-01T04:23:45;25.17;;;22.47;;
9224;SDS011;4647;48.072;11.616;2023-03-01T04:26:17;26.33;;;23.50;;
9224;SDS011;4647;48.072;11.616;2023-03-01T04:28:46;28.07;;;25.10;;
9224;SDS011;4647;48.072;11.616;2023-03-01T04:31:16;26.93;;;24.13;;
9224;SDS011;4647;48.072;11.616;2023-03-01T04:33:46;27.03;;;24.23;;
9224;SDS011;4647;48.072;11.616;2023-03-01T04:36:19;26.60;;;22.63;;
9224;SDS011;4647;48.072;11.616;2023-03-01T04:38:49;26.43;;;23.73;;
9224;SDS011;4647;48.072;11.616;2023-03-01T04:41:18;27.10;;;22.97;;
9224;SDS011;4647;48.072;11.616;2023-03-01T04:43:48;29.40;;;26.47;;
9224;SDS011;4647;48.072;11.616;2023-03-01T04:46:17;27.03;;;24.20;;
9224;SDS011;4647;48.072;11.616;2023-03-01T04:48:47;27.70;;;24.70;;
9224;SDS011;4647;48.072;11.616;2023-03-01T04:51:16;26.33;;;23.47;;
9224;SDS011;4647;48.072;11.616;2023-03-01T04:53:47;26.83;;;24.07;;
9224;SDS011;4647;48.072;11.616;2023-03-01T04:56:15;29.53;;;23.63;;
9224;SDS011;4647;48.072;11.616;2023-03-01T04:58:45;27.63;;;24.83;;
9224;SDS011;4647;48.072;11.616;2023-03-01T05:01:15;26.87;;;23.97;;
9224;SDS011;4647;48.072;11.616;2023-03-01T05:03:46;26.20;;;23.40;;
9224;SDS011;4647;48.072;11.616;2023-03-01T05:06:16;27.37;;;23.57;;
9224;SDS011;4647;48.072;11.616;2023-03-01T05:08:48;27.23;;;24.33;;
9224;SDS011;4647;48.072;11.616;2023-03-01T05:11:16;27.90;;;25.10;;
9224;SDS011;4647;48.072;11.616;2023-03-01T05:13:45;26.97;;;24.07;;
9224;SDS011;4647;48.072;11.616;2023-03-01T05:16:15;27.10;;;24.30;;
9224;SDS011;4647;48.072;11.616;2023-03-01T05:18:45;27.27;;;24.33;;
9224;SDS011;4647;48.072;11.616;2023-03-01T05:21:16;27.70;;;24.77;;
9224;SDS011;4647;48.072;11.616;2023-03-01T05:23:47;28.13;;;25.17;;
9224;SDS011;4647;48.072;11.616;2023-03-01T05:26:16;27.80;;;25.00;;
9224;SDS011;4647;48.072;11.616;2023-03-01T05:28:47;28.53;;;25.63;;
9224;SDS011;4647;48.072;11.616;2023-03-01T05:31:15;28.17;;;25.33;;
9224;SDS011;4647;48.072;11.616;2023-03-01T05:33:44;29.40;;;26.37;;
9224;SDS011;4647;48.072;11.616;2023-03-01T05:36:13;31.70;;;24.63;;
9224;SDS011;4647;48.072;11.616;2023-03-01T05:38:46;31.17;;;26.17;;
9224;SDS011;4647;48.072;11.616;2023-03-01T05:41:14;30.07;;;26.00;;
9224;SDS011;4647;48.072;11.616;2023-03-01T05:43:43;27.63;;;24.70;;
9224;SDS011;4647;48.072;11.616;2023-03-01T05:46:11;27.97;;;25.03;;
9224;SDS011;4647;48.072;11.616;2023-03-01T05:48:40;28.60;;;25.50;;
9224;SDS011;4647;48.072;11.616;2023-03-01T05:51:08;30.30;;;27.30;;
9224;SDS011;4647;48.072;11.616;2023-03-01T05:53:37;28.43;;;25.33;;
9224;SDS011;4647;48.072;11.616;2023-03-01T05:56:08;33.10;;;25.50;;
9224;SDS011;4647;48.072;11.616;2023-03-01T05:58:36;28.97;;;25.93;;
9224;SDS011;4647;48.072;11.616;2023-03-01T06:01:10;29.13;;;26.00;;
9224;SDS011;4647;48.072;11.616;2023-03-01T06:03:39;29.70;;;26.47;;
9224;SDS011;4647;48.072;11.616;2023-03-01T06:06:07;28.87;;;26.00;;
9224;SDS011;4647;48.072;11.616;2023-03-01T06:08:36;27.23;;;23.93;;
9224;SDS011;4647;48.072;11.616;2023-03-01T06:11:05;30.97;;;27.00;;
9224;SDS011;4647;48.072;11.616;2023-03-01T06:13:36;30.20;;;25.90;;
9224;SDS011;4647;48.072;11.616;2023-03-01T06:16:05;28.77;;;25.67;;
9224;SDS011;4647;48.072;11.616;2023-03-01T06:18:34;30.37;;;27.13;;
9224;SDS011;4647;48.072;11.616;2023-03-01T06:21:03;28.83;;;25.60;;
9224;SDS011;4647;48.072;11.616;2023-03-01T06:23:32;29.17;;;26.07;;
9224;SDS011;4647;48.072;11.616;2023-03-01T06:26:04;29.57;;;25.87;;
9224;SDS011;4647;48.072;11.616;2023-03-01T06:28:37;33.43;;;25.97;;
9224;SDS011;4647;48.072;11.616;2023-03-01T06:31:05;27.67;;;24.77;;
9224;SDS011;4647;48.072;11.616;2023-03-01T06:33:34;31.57;;;26.73;;
9224;SDS011;4647;48.072;11.616;2023-03-01T06:36:04;31.37;;;25.43;;
9224;SDS011;4647;48.072;11.616;2023-03-01T06:38:32;29.77;;;26.40;;
9224;SDS011;4647;48.072;11.616;2023-03-01T06:41:01;32.40;;;26.80;;
9224;SDS011;4647;48.072;11.616;2023-03-01T06:43:32;30.27;;;25.80;;
9224;SDS011;4647;48.072;11.616;2023-03-01T06:46:03;29.10;;;26.00;;
9224;SDS011;4647;48.072;11.616;2023-03-01T06:48:32;31.40;;;26.13;;
9224;SDS011;4647;48.072;11.616;2023-03-01T06:51:00;28.27;;;25.27;;
9224;SDS011;4647;48.072;11.616;2023-03-01T06:53:29;29.27;;;26.23;;
9224;SDS011;4647;48.072;11.616;2023-03-01T06:55:58;31.70;;;26.37;;
9224;SDS011;4647;48.072;11.616;2023-03-01T06:58:26;31.77;;;25.63;;
9224;SDS011;4647;48.072;11.616;2023-03-01T07:00:57;31.47;;;26.90;;
9224;SDS011;4647;48.072;11.616;2023-03-01T07:03:26;32.10;;;27.37;;
9224;SDS011;4647;48.072;11.616;2023-03-01T07:05:54;30.57;;;24.43;;
9224;SDS011;4647;48.072;11.616;2023-03-01T07:08:23;32.67;;;26.90;;
9224;SDS011;4647;48.072;11.616;2023-03-01T07:10:54;29.57;;;26.33;;
9224;SDS011;4647;48.072;11.616;2023-03-01T07:13:23;28.67;;;25.57;;
9224;SDS011;4647;48.072;11.616;2023-03-01T07:15:51;30.00;;;25.53;;
9224;SDS011;4647;48.072;11.616;2023-03-01T07:18:23;29.13;;;26.03;;
9224;SDS011;4647;48.072;11.616;2023-03-01T07:20:51;29.10;;;25.97;;
9224;SDS011;4647;48.072;11.616;2023-03-01T07:23:20;31.07;;;27.13;;
9224;SDS011;4647;48.072;11.616;2023-03-01T07:25:51;30.17;;;25.63;;
9224;SDS011;4647;48.072;11.616;2023-03-01T07:28:22;30.70;;;25.93;;
9224;SDS011;4647;48.072;11.616;2023-03-01T07:30:50;33.27;;;27.17;;
9224;SDS011;4647;48.072;11.616;2023-03-01T07:33:18;33.17;;;27.23;;
9224;SDS011;4647;48.072;11.616;2023-03-01T07:35:55;29.20;;;25.63;;
9224;SDS011;4647;48.072;11.616;2023-03-01T07:38:24;34.23;;;27.30;;
9224;SDS011;4647;48.072;11.616;2023-03-01T07:40:53;31.70;;;25.70;;
9224;SDS011;4647;48.072;11.616;2023-03-01T07:43:22;28.47;;;25.37;;
9224;SDS011;4647;48.072;11.616;2023-03-01T07:45:50;28.77;;;25.70;;
9224;SDS011;4647;48.072;11.616;2023-03-01T07:48:19;33.90;;;26.73;;
9224;SDS011;4647;48.072;11.616;2023-03-01T07:50:50;31.53;;;27.23;;
9224;SDS011;4647;48.072;11.616;2023-03-01T07:53:18;28.47;;;25.40;;
9224;SDS011;4647;48.072;11.616;2023-03-01T07:55:46;29.23;;;26.17;;
9224;SDS011;4647;48.072;11.616;2023-03-01T07:58:15;31.73;;;26.73;;
9224;SDS011;4647;48.072;11.616;2023-03-01T08:00:43;29.40;;;26.20;;
9224;SDS011;4647;48.072;11.616;2023-03-01T08:03:12;28.87;;;26.00;;
9224;SDS011;4647;48.072;11.616;2023-03-01T08:05:40;32.77;;;26.03;;
9224;SDS011;4647;48.072;11.616;2023-03-01T08:08:11;28.27;;;25.20;;
9224;SDS011;4647;48.072;11.616;2023-03-01T08:10:40;36.70;;;27.47;;
9224;SDS011;4647;48.072;11.616;2023-03-01T08:13:08;29.73;;;26.63;;
9224;SDS011;4647;48.072;11.616;2023-03-01T08:15:37;29.47;;;26.40;;
9224;SDS011;4647;48.072;11.616;2023-03-01T08:18:05;30.93;;;25.20;;
9224;SDS011;4647;48.072;11.616;2023-03-01T08:20:33;27.97;;;24.97;;
9224;SDS011;4647;48.072;11.616;2023-03-01T08:23:02;28.50;;;25.57;;
9224;SDS011;4647;48.072;11.616;2023-03-01T08:25:33;30.43;;;27.13;;
9224;SDS011;4647;48.072;11.616;2023-03-01T08:28:02;28.50;;;25.40;;
9224;SDS011;4647;48.072;11.616;2023-03-01T08:30:31;34.03;;;27.70;;
9224;SDS011;4647;48.072;11.616;2023-03-01T08:32:59;32.63;;;27.37;;
9224;SDS011;4647;48.072;11.616;2023-03-01T08:35:28;31.13;;;27.77;;
9224;SDS011;4647;48.072;11.616;2023-03-01T08:37:56;29.87;;;26.60;;
9224;SDS011;4647;48.072;11.616;2023-03-01T08:40:25;30.60;;;27.10;;
9224;SDS011;4647;48.072;11.616;2023-03-01T08:42:56;29.47;;;26.30;;
9224;SDS011;4647;48.072;11.616;2023-03-01T08:45:25;30.10;;;26.80;;
9224;SDS011;4647;48.072;11.616;2023-03-01T08:47:54;30.20;;;27.00;;
9224;SDS011;4647;48.072;11.616;2023-03-01T08:50:22;28.83;;;25.67;;
9224;SDS011;4647;48.072;11.616;2023-03-01T08:52:51;27.27;;;23.10;;
9224;SDS011;4647;48.072;11.616;2023-03-01T08:55:19;27.37;;;24.57;;
9224;SDS011;4647;48.072;11.616;2023-03-01T08:57:48;27.53;;;24.57;;
9224;SDS011;4647;48.072;11.616;2023-03-01T09:00:19;28.73;;;25.87;;
9224;SDS011;4647;48.072;11.616;2023-03-01T09:02:48;30.07;;;26.87;;
9224;SDS011;4647;48.072;11.616;2023-03-01T09:05:17;29.00;;;24.73;;
9224;SDS011;4647;48.072;11.616;2023-03-01T09:07:45;27.47;;;24.27;;
9224;SDS011;4647;48.072;11.616;2023-03-01T09:10:13;28.40;;;25.50;;
9224;SDS011;4647;48.072;11.616;2023-03-01T09:12:42;30.37;;;27.17;;
9224;SDS011;4647;48.072;11.616;2023-03-01T09:15:11;28.93;;;25.90;;
9224;SDS011;4647;48.072;11.616;2023-03-01T09:17:42;29.50;;;26.33;;
9224;SDS011;4647;48.072;11.616;2023-03-01T09:20:11;28.40;;;25.40;;
9224;SDS011;4647;48.072;11.616;2023-03-01T09:22:39;29.53;;;25.37;;
9224;SDS011;4647;48.072;11.616;2023-03-01T09:25:08;30.00;;;26.83;;
9224;SDS011;4647;48.072;11.616;2023-03-01T09:27:37;29.73;;;26.60;;
9224;SDS011;4647;48.072;11.616;2023-03-01T09:30:06;32.63;;;29.20;;
9224;SDS011;4647;48.072;11.616;2023-03-01T09:32:36;29.80;;;26.80;;
9224;SDS011;4647;48.072;11.616;2023-03-01T09:35:10;31.23;;;27.93;;
9224;SDS011;4647;48.072;11.616;2023-03-01T09:37:38;30.40;;;26.60;;
9224;SDS011;4647;48.072;11.616;2023-03-01T09:40:11;31.27;;;26.90;;
9224;SDS011;4647;48.072;11.616;2023-03-01T09:42:48;28.77;;;25.77;;
9224;SDS011;4647;48.072;11.616;2023-03-01T09:45:25;29.13;;;26.13;;
9224;SDS011;4647;48.072;11.616;2023-03-01T09:47:58;28.97;;;26.00;;
9224;SDS011;4647;48.072;11.616;2023-03-01T09:50:33;30.80;;;27.73;;
9224;SDS011;4647;48.072;11.616;2023-03-01T09:53:04;31.33;;;28.03;;
9224;SDS011;4647;48.072;11.616;2023-03-01T09:55:38;29.33;;;26.23;;
9224;SDS011;4647;48.072;11.616;2023-03-01T09:58:21;30.77;;;27.57;;
9224;SDS011;4647;48.072;11.616;2023-03-01T10:01:02;29.77;;;26.67;;
9224;SDS011;4647;48.072;11.616;2023-03-01T10:03:39;31.40;;;28.10;;
9224;SDS011;4647;48.072;11.616;2023-03-01T10:06:15;29.83;;;26.57;;
9224;SDS011;4647;48.072;11.616;2023-03-01T10:08:50;29.37;;;26.37;;
9224;SDS011;4647;48.072;11.616;2023-03-01T10:11:24;31.77;;;28.47;;
9224;SDS011;4647;48.072;11.616;2023-03-01T10:13:58;33.33;;;27.07;;
9224;SDS011;4647;48.072;11.616;2023-03-01T10:16:34;34.77;;;29.43;;
9224;SDS011;4647;48.072;11.616;2023-03-01T10:19:09;30.47;;;27.30;;
9224;SDS011;4647;48.072;11.616;2023-03-01T10:21:45;31.47;;;28.20;;
9224;SDS011;4647;48.072;11.616;2023-03-01T10:24:14;30.00;;;26.70;;
9224;SDS011;4647;48.072;11.616;2023-03-01T10:26:52;29.37;;;26.07;;
9224;SDS011;4647;48.072;11.616;2023-03-01T10:29:25;29.70;;;26.40;;
9224;SDS011;4647;48.072;11.616;2023-03-01T10:31:58;28.67;;;24.47;;
9224;SDS011;4647;48.072;11.616;2023-03-01T10:34:27;29.13;;;26.23;;
9224;SDS011;4647;48.072;11.616;2023-03-01T10:37:04;26.30;;;23.43;;
9224;SDS011;4647;48.072;11.616;2023-03-01T10:39:37;30.73;;;24.80;;
9224;SDS011;4647;48.072;11.616;2023-03-01T10:42:26;29.13;;;25.43;;
9224;SDS011;4647;48.072;11.616;2023-03-01T10:44:57;28.63;;;25.50;;
9224;SDS011;4647;48.072;11.616;2023-03-01T10:47:27;28.50;;;25.53;;
9224;SDS011;4647;48.072;11.616;2023-03-01T10:49:59;27.53;;;24.63;;
9224;SDS011;4647;48.072;11.616;2023-03-01T10:52:35;30.00;;;26.77;;
9224;SDS011;4647;48.072;11.616;2023-03-01T10:55:23;27.63;;;24.83;;
9224;SDS011;4647;48.072;11.616;2023-03-01T10:58:06;28.77;;;25.67;;
9224;SDS011;4647;48.072;11.616;2023-03-01T11:00:47;28.27;;;25.20;;
9224;SDS011;4647;48.072;11.616;2023-03-01T11:03:18;27.87;;;24.93;;
9224;SDS011;4647;48.072;11.616;2023-03-01T11:05:54;27.67;;;24.80;;
9224;SDS011;4647;48.072;11.616;2023-03-01T11:11:17;27.97;;;25.17;;
9224;SDS011;4647;48.072;11.616;2023-03-01T11:13:53;28.50;;;25.50;;
9224;SDS011;4647;48.072;11.616;2023-03-01T11:16:24;29.47;;;26.27;;
9224;SDS011;4647;48.072;11.616;2023-03-01T11:19:04;30.03;;;25.90;;
9224;SDS011;4647;48.072;11.616;2023-03-01T11:21:45;28.97;;;25.83;;
9224;SDS011;4647;48.072;11.616;2023-03-01T11:24:23;30.27;;;24.17;;
9224;SDS011;4647;48.072;11.616;2023-03-01T11:26:57;28.50;;;25.50;;
9224;SDS011;4647;48.072;11.616;2023-03-01T11:29:31;30.00;;;26.83;;
9224;SDS011;4647;48.072;11.616;2023-03-01T11:32:06;28.03;;;25.13;;
9224;SDS011;4647;48.072;11.616;2023-03-01T11:34:38;29.93;;;26.67;;
9224;SDS011;4647;48.072;11.616;2023-03-01T11:37:14;29.83;;;26.77;;
9224;SDS011;4647;48.072;11.616;2023-03-01T11:39:54;29.87;;;26.67;;
9224;SDS011;4647;48.072;11.616;2023-03-01T11:42:31;30.00;;;26.70;;
9224;SDS011;4647;48.072;11.616;2023-03-01T11:45:11;30.13;;;26.93;;
9224;SDS011;4647;48.072;11.616;2023-03-01T11:47:51;29.17;;;26.17;;
9224;SDS011;4647;48.072;11.616;2023-03-01T11:50:39;28.70;;;25.63;;
9224;SDS011;4647;48.072;11.616;2023-03-01T11:53:30;27.67;;;24.87;;
9224;SDS011;4647;48.072;11.616;2023-03-01T11:56:20;29.20;;;26.27;;
9224;SDS011;4647;48.072;11.616;2023-03-01T11:59:02;29.10;;;25.87;;
9224;SDS011;4647;48.072;11.616;2023-03-01T12:01:44;28.20;;;25.30;;
9224;SDS011;4647;48.072;11.616;2023-03-01T12:07:24;28.10;;;25.10;;
9224;SDS011;4647;48.072;11.616;2023-03-01T12:10:10;30.03;;;26.90;;
9224;SDS011;4647;48.072;11.616;2023-03-01T12:13:02;29.00;;;25.80;;
9224;SDS011;4647;48.072;11.616;2023-03-01T12:15:50;29.77;;;26.57;;
9224;SDS011;4647;48.072;11.616;2023-03-01T12:21:43;30.13;;;26.93;;
9224;SDS011;4647;48.072;11.616;2023-03-01T12:24:24;32.30;;;26.37;;
9224;SDS011;4647;48.072;11.616;2023-03-01T12:27:09;30.67;;;26.73;;
9224;SDS011;4647;48.072;11.616;2023-03-01T12:29:51;28.63;;;25.73;;
9224;SDS011;4647;48.072;11.616;2023-03-01T12:32:33;28.43;;;25.53;;
9224;SDS011;4647;48.072;11.616;2023-03-01T12:38:07;30.53;;;27.33;;
9224;SDS011;4647;48.072;11.616;2023-03-01T12:43:44;29.47;;;26.27;;
9224;SDS011;4647;48.072;11.616;2023-03-01T12:46:28;30.30;;;26.60;;
9224;SDS011;4647;48.072;11.616;2023-03-01T12:49:08;28.67;;;25.70;;
9224;SDS011;4647;48.072;11.616;2023-03-01T12:51:42;28.63;;;25.63;;
9224;SDS011;4647;48.072;11.616;2023-03-01T12:54:25;32.27;;;26.73;;
9224;SDS011;4647;48.072;11.616;2023-03-01T12:56:55;29.90;;;26.73;;
9224;SDS011;4647;48.072;11.616;2023-03-01T12:59:30;32.43;;;25.00;;
9224;SDS011;4647;48.072;11.616;2023-03-01T13:02:13;28.50;;;25.47;;
9224;SDS011;4647;48.072;11.616;2023-03-01T13:04:53;31.13;;;25.47;;
9224;SDS011;4647;48.072;11.616;2023-03-01T13:07:35;28.83;;;25.60;;
9224;SDS011;4647;48.072;11.616;2023-03-01T13:10:14;28.83;;;25.73;;
9224;SDS011;4647;48.072;11.616;2023-03-01T13:12:53;28.97;;;25.97;;
9224;SDS011;4647;48.072;11.616;2023-03-01T13:15:34;29.40;;;26.00;;
9224;SDS011;4647;48.072;11.616;2023-03-01T13:18:25;30.13;;;26.73;;
9224;SDS011;4647;48.072;11.616;2023-03-01T13:21:00;30.03;;;26.13;;
9224;SDS011;4647;48.072;11.616;2023-03-01T13:23:31;29.63;;;26.33;;
9224;SDS011;4647;48.072;11.616;2023-03-01T13:26:04;29.63;;;25.67;;
9224;SDS011;4647;48.072;11.616;2023-03-01T13:28:47;30.23;;;27.17;;
9224;SDS011;4647;48.072;11.616;2023-03-01T13:37:20;30.87;;;27.03;;
9224;SDS011;4647;48.072;11.616;2023-03-01T13:39:54;31.97;;;28.60;;
9224;SDS011;4647;48.072;11.616;2023-03-01T13:42:40;28.40;;;25.33;;
9224;SDS011;4647;48.072;11.616;2023-03-01T13:45:16;29.70;;;26.30;;
9224;SDS011;4647;48.072;11.616;2023-03-01T13:47:53;32.87;;;26.90;;
9224;SDS011;4647;48.072;11.616;2023-03-01T13:50:27;29.63;;;26.23;;
9224;SDS011;4647;48.072;11.616;2023-03-01T13:52:57;31.80;;;26.13;;
9224;SDS011;4647;48.072;11.616;2023-03-01T13:55:34;31.00;;;26.87;;
9224;SDS011;4647;48.072;11.616;2023-03-01T13:58:13;29.03;;;26.00;;
9224;SDS011;4647;48.072;11.616;2023-03-01T14:00:44;33.80;;;28.00;;
9224;SDS011;4647;48.072;11.616;2023-03-01T14:03:14;32.50;;;26.40;;
9224;SDS011;4647;48.072;11.616;2023-03-01T14:05:57;29.33;;;26.23;;
9224;SDS011;4647;48.072;11.616;2023-03-01T14:08:28;32.90;;;28.40;;
9224;SDS011;4647;48.072;11.616;2023-03-01T14:11:00;30.83;;;27.50;;
9224;SDS011;4647;48.072;11.616;2023-03-01T14:13:46;30.67;;;27.17;;
9224;SDS011;4647;48.072;11.616;2023-03-01T14:16:25;33.17;;;27.97;;
9224;SDS011;4647;48.072;11.616;2023-03-01T14:19:13;30.33;;;27.10;;
9224;SDS011;4647;48.072;11.616;2023-03-01T14:21:48;31.47;;;28.07;;
9224;SDS011;4647;48.072;11.616;2023-03-01T14:24:27;30.83;;;26.77;;
9224;SDS011;4647;48.072;11.616;2023-03-01T14:26:57;30.53;;;27.33;;
9224;SDS011;4647;48.072;11.616;2023-03-01T14:29:34;31.67;;;27.00;;
9224;SDS011;4647;48.072;11.616;2023-03-01T14:32:11;33.27;;;27.70;;
9224;SDS011;4647;48.072;11.616;2023-03-01T14:34:46;30.73;;;27.53;;
9224;SDS011;4647;48.072;11.616;2023-03-01T14:37:24;29.23;;;26.10;;
9224;SDS011;4647;48.072;11.616;2023-03-01T14:39:54;33.20;;;27.47;;
9224;SDS011;4647;48.072;11.616;2023-03-01T14:42:24;31.00;;;27.67;;
9224;SDS011;4647;48.072;11.616;2023-03-01T14:44:56;31.97;;;28.63;;
9224;SDS011;4647;48.072;11.616;2023-03-01T14:47:27;30.83;;;27.00;;
9224;SDS011;4647;48.072;11.616;2023-03-01T14:49:59;31.33;;;28.17;;
9224;SDS011;4647;48.072;11.616;2023-03-01T14:52:34;31.27;;;25.63;;
9224;SDS011;4647;48.072;11.616;2023-03-01T14:55:05;29.40;;;24.67;;
9224;SDS011;4647;48.072;11.616;2023-03-01T14:57:43;33.10;;;27.40;;
9224;SDS011;4647;48.072;11.616;2023-03-01T15:00:16;33.83;;;25.57;;
9224;SDS011;4647;48.072;11.616;2023-03-01T15:02:47;29.33;;;25.23;;
9224;SDS011;4647;48.072;11.616;2023-03-01T15:05:18;27.90;;;25.00;;
9224;SDS011;4647;48.072;11.616;2023-03-01T15:07:56;33.70;;;25.03;;
9224;SDS011;4647;48.072;11.616;2023-03-01T15:10:27;30.10;;;25.40;;
9224;SDS011;4647;48.072;11.616;2023-03-01T15:13:09;28.13;;;24.63;;
9224;SDS011;4647;48.072;11.616;2023-03-01T15:15:38;31.67;;;26.30;;
9224;SDS011;4647;48.072;11.616;2023-03-01T15:18:15;29.43;;;26.20;;
9224;SDS011;4647;48.072;11.616;2023-03-01T15:20:46;28.47;;;25.43;;
9224;SDS011;4647;48.072;11.616;2023-03-01T15:23:23;36.73;;;27.53;;
9224;SDS011;4647;48.072;11.616;2023-03-01T15:25:54;28.17;;;25.17;;